QTR75C OTHH-LGAV
Flight info
| Callsign | QTR75C |
|---|---|
| Flight time | N/A |
| Altitude | 29000 |
| Route | DATRI L564 MIGMA/N0517F280 M628 AMBAG/N0488F400 M321 KSA T503 OVANO L768 FIRAS R655 KTN R785 NIKAS M978 LCA M601 VADUS DCT EVENO UM601 RDS UL995 VARIX |
| Aircraft | A359/H-SDE2E3GHIJ1J3J4J5LM1ORWXY/LB1D1 |
Departure
| Time | N/A |
|---|---|
| Airport | Hamad International Airport (OTHH) |
Arrival
| Time | 2026-05-07 18:50 |
|---|---|
| Airport | Athens Eleftherios Venizelos International Airport (LGAV) |
| Time | Latitude | Longitude | Altitude | Speed | Heading |
|---|---|---|---|---|---|
| 2026-05-07 18:35 | 37.98136 | 24.89590 | 15410 ft | 325 kts | 175° |
| 2026-05-07 18:35 | 37.95942 | 24.89338 | 14952 ft | 314 kts | 203° |
| 2026-05-07 18:36 | 37.94083 | 24.87992 | 14521 ft | 306 kts | 223° |
| 2026-05-07 18:36 | 37.92688 | 24.86000 | 14081 ft | 300 kts | 240° |
| 2026-05-07 18:36 | 37.91807 | 24.83637 | 13622 ft | 296 kts | 255° |
| 2026-05-07 18:36 | 37.91480 | 24.81094 | 13159 ft | 292 kts | 270° |
| 2026-05-07 18:37 | 37.91708 | 24.78589 | 12703 ft | 289 kts | 285° |
| 2026-05-07 18:37 | 37.92429 | 24.76186 | 12218 ft | 289 kts | 295° |
| 2026-05-07 18:37 | 37.93278 | 24.73919 | 11793 ft | 288 kts | 295° |
| 2026-05-07 18:37 | 37.94119 | 24.71631 | 11388 ft | 285 kts | 294° |
| 2026-05-07 18:38 | 37.94933 | 24.69340 | 11002 ft | 284 kts | 294° |
| 2026-05-07 18:38 | 37.95729 | 24.67050 | 10550 ft | 284 kts | 293° |
| 2026-05-07 18:38 | 37.96512 | 24.64767 | 10185 ft | 281 kts | 293° |
| 2026-05-07 18:38 | 37.97288 | 24.62488 | 9768 ft | 279 kts | 293° |
| 2026-05-07 18:39 | 37.98051 | 24.60241 | 9291 ft | 279 kts | 292° |
| 2026-05-07 18:39 | 37.98814 | 24.57988 | 8878 ft | 277 kts | 292° |
| 2026-05-07 18:39 | 37.99574 | 24.55731 | 8324 ft | 280 kts | 292° |
| 2026-05-07 18:39 | 38.00342 | 24.53450 | 7885 ft | 281 kts | 291° |
| 2026-05-07 18:40 | 38.01107 | 24.51181 | 7512 ft | 278 kts | 291° |
| 2026-05-07 18:40 | 38.01854 | 24.48959 | 7340 ft | 269 kts | 291° |
| 2026-05-07 18:40 | 38.02576 | 24.46820 | 7201 ft | 260 kts | 291° |
| 2026-05-07 18:40 | 38.03282 | 24.44727 | 6962 ft | 256 kts | 290° |
| 2026-05-07 18:41 | 38.03978 | 24.42651 | 6632 ft | 255 kts | 290° |
| 2026-05-07 18:41 | 38.04665 | 24.40605 | 6255 ft | 255 kts | 290° |
| 2026-05-07 18:41 | 38.05358 | 24.38539 | 5926 ft | 254 kts | 290° |
| 2026-05-07 18:41 | 38.06043 | 24.36486 | 5600 ft | 251 kts | 290° |
| 2026-05-07 18:42 | 38.06724 | 24.34455 | 5251 ft | 249 kts | 289° |
| 2026-05-07 18:42 | 38.07397 | 24.32431 | 4937 ft | 248 kts | 290° |
| 2026-05-07 18:42 | 38.08071 | 24.30414 | 4552 ft | 246 kts | 290° |
| 2026-05-07 18:42 | 38.08739 | 24.28423 | 4024 ft | 245 kts | 289° |
| 2026-05-07 18:43 | 38.09389 | 24.26445 | 3510 ft | 243 kts | 296° |
| 2026-05-07 18:43 | 38.10227 | 24.24564 | 3175 ft | 245 kts | 297° |
| 2026-05-07 18:43 | 38.11080 | 24.22706 | 2985 ft | 243 kts | 296° |
| 2026-05-07 18:43 | 38.11938 | 24.20842 | 2962 ft | 252 kts | 296° |
| 2026-05-07 18:44 | 38.12614 | 24.18875 | 2952 ft | 237 kts | 279° |
| 2026-05-07 18:44 | 38.12639 | 24.16878 | 2909 ft | 219 kts | 253° |
| 2026-05-07 18:44 | 38.12141 | 24.15150 | 2943 ft | 198 kts | 243° |
| 2026-05-07 18:44 | 38.11563 | 24.13570 | 2982 ft | 196 kts | 242° |
| 2026-05-07 18:45 | 38.10787 | 24.12139 | 2965 ft | 199 kts | 226° |
| 2026-05-07 18:45 | 38.09763 | 24.10970 | 2953 ft | 198 kts | 217° |
| 2026-05-07 18:45 | 38.08659 | 24.09908 | 2961 ft | 199 kts | 216° |
| 2026-05-07 18:45 | 38.07550 | 24.08853 | 2914 ft | 198 kts | 216° |
| 2026-05-07 18:46 | 38.06482 | 24.07829 | 2814 ft | 186 kts | 217° |
| 2026-05-07 18:46 | 38.05483 | 24.06864 | 2711 ft | 175 kts | 216° |
| 2026-05-07 18:46 | 38.04555 | 24.05969 | 2591 ft | 166 kts | 216° |
| 2026-05-07 18:46 | 38.03646 | 24.05099 | 2384 ft | 163 kts | 216° |
| 2026-05-07 18:47 | 38.02730 | 24.04223 | 2180 ft | 162 kts | 216° |
| 2026-05-07 18:47 | 38.01854 | 24.03385 | 1956 ft | 157 kts | 215° |
| 2026-05-07 18:47 | 38.01009 | 24.02578 | 1733 ft | 146 kts | 216° |
| 2026-05-07 18:47 | 38.00229 | 24.01829 | 1548 ft | 133 kts | 216° |
| 2026-05-07 18:48 | 37.99485 | 24.01116 | 1405 ft | 134 kts | 214° |
| 2026-05-07 18:48 | 37.98750 | 24.00412 | 1194 ft | 130 kts | 214° |
| 2026-05-07 18:48 | 37.98037 | 23.99718 | 1015 ft | 129 kts | 215° |
| 2026-05-07 18:48 | 37.97320 | 23.99057 | 923 ft | 128 kts | 216° |
| 2026-05-07 18:49 | 37.96599 | 23.98386 | 761 ft | 129 kts | 216° |
| 2026-05-07 18:49 | 37.95886 | 23.97695 | 572 ft | 129 kts | 217° |
| 2026-05-07 18:49 | 37.95164 | 23.97002 | 369 ft | 129 kts | 216° |
| 2026-05-07 18:49 | 37.94470 | 23.96339 | 305 ft | 119 kts | 216° |
| 2026-05-07 18:50 | 37.93882 | 23.95779 | 285 ft | 82 kts | 217° |
| 2026-05-07 18:50 | 37.93654 | 23.95563 | 286 ft | 16 kts | 217° |
| 2026-05-07 18:50 | 37.93551 | 23.95452 | 295 ft | 24 kts | 232° |
| 2026-05-07 18:50 | 37.93471 | 23.95268 | 301 ft | 22 kts | 245° |
| 2026-05-07 18:51 | 37.93415 | 23.95102 | 307 ft | 20 kts | 248° |
| 2026-05-07 18:51 | 37.93329 | 23.94976 | 308 ft | 20 kts | 217° |
| 2026-05-07 18:51 | 37.93215 | 23.94869 | 309 ft | 21 kts | 217° |
| 2026-05-07 18:51 | 37.93092 | 23.94752 | 309 ft | 22 kts | 218° |
| 2026-05-07 18:52 | 37.93071 | 23.94663 | 308 ft | 13 kts | 293° |
| 2026-05-07 18:52 | 37.93142 | 23.94593 | 308 ft | 14 kts | 352° |
| 2026-05-07 18:52 | 37.93246 | 23.94623 | 310 ft | 17 kts | 34° |
| 2026-05-07 18:52 | 37.93348 | 23.94719 | 311 ft | 20 kts | 36° |
| 2026-05-07 18:53 | 37.93455 | 23.94817 | 308 ft | 9 kts | 23° |
| 2026-05-07 18:53 | 37.93487 | 23.94788 | 310 ft | 6 kts | 308° |
| 2026-05-07 18:53 | 37.93507 | 23.94756 | 309 ft | 0 kts | 308° |